METAR stanice u blizini

 

LYBE - Beograd / Surčin, Srbija
Ažurirano: 04/02/2023 13:00
Mostly Cloudy
Mostly Cloudy
 Pravac vetra SZ
Vetar: SZ 48 km/h, Maks.: 67 km/h
Temperatura: 4°C
Osećaj hladnoće: -3°C
Tačka rose: -2°C
Vlažnost: 65%
Pritisak: 1017 hPa
Oblaci: Mostly Cloudy
Vidljivost: 10 km
Cloud details: Mostly Cloudy 1006 m
2023/02/04 12:00 LYBE 041200Z 31026G36KT 9999 BKN033 04/M02 Q1017 NOSIG
LYBT - Beograd / Batajnica, Srbija
Ažurirano: 04/02/2023 13:00
Mostly Cloudy
Mostly Cloudy
 Pravac vetra SZ
Vetar: SZ 46 km/h, Maks.: 65 km/h
Temperatura: 4°C
Osećaj hladnoće: -3°C
Tačka rose: -1°C
Vlažnost: 70%
Pritisak: 1016 hPa
Oblaci: Mostly Cloudy
Vidljivost: 10 km
Cloud details: Partly Cloudy 914 m
Mostly Cloudy 1219 m
2023/02/04 12:00 LYBT 041200Z 31025G35KT 9999 SCT030 BKN040 04/M01 Q1016 NOSIG
LYVR - Vršac, Srbija
Ažurirano: 04/02/2023 13:00
Slaba kiša, Oblačno
Slaba kiša, Oblačno
 Pravac vetra SZ
Vetar: SZ 39 km/h
Temperatura: 3°C
Osećaj hladnoće: -3°C
Tačka rose: 3°C
Vlažnost: 100%
Pritisak: 1014 hPa
Pregled: Light Rain
Oblaci: Oblačno
Vidljivost: 10 km
Cloud details: Mostly Cloudy 335 m
Oblačno 427 m
2023/02/04 12:00 LYVR 041200Z AUTO 32021KT 9999 -RA BKN011/// OVC014/// 03/03 Q1014
 
LYKV - Lađevci, Srbija
Ažurirano: 04/02/2023 13:00
Mostly Cloudy
Mostly Cloudy
 Pravac vetra SZ
Vetar: SZ 24 km/h
Temperatura: 4°C
Osećaj hladnoće: -1°C
Tačka rose: 2°C
Vlažnost: 87%
Pritisak: 1016 hPa
Oblaci: Mostly Cloudy
Vidljivost: 10 km
Cloud details: Partly Cloudy 518 m
Mostly Cloudy 1067 m
2023/02/04 12:00 LYKV 041200Z 31013KT 280V340 9999 SCT017 BKN035 04/02 Q1016 TEMPO 32017G27KT 5000 SHRA SCT010 SCT025TCU BKN030
LYNI - Niš, Srbija
Ažurirano: 04/02/2023 13:00
Light thunderstorm, Padavine, Pretežno oblačno
Light thunderstorm, Padavine, Pretežno oblačno
 Pravac vetra JJZ
Vetar: JJZ 6 km/h
Temperatura: 5°C
Tačka rose: 4°C
Vlažnost: 93%
Pritisak: 1013 hPa
Pregled: Light thunderstorm, Padavine
Oblaci: Mostly Cloudy
Vidljivost: 10 km
Cloud details: Few Clouds 244 m
Partly Cloudy 762 m
Mostly Cloudy 914 m
2023/02/04 12:00 LYNI 041200Z 20003KT 140V290 9999 -TSRA FEW008 SCT025CB BKN030 05/04 Q1013 TEMPO 32025G45KT 1500 TSRA
BKPR - Priština, Srbija
Ažurirano: 04/02/2023 13:30
Mostly Cloudy
Mostly Cloudy
 Pravac vetra SZ
Vetar: SZ 15 km/h
Temperatura: 6°C
Osećaj hladnoće: 3°C
Tačka rose: 0°C
Vlažnost: 66%
Pritisak: 1013 hPa
Oblaci: Mostly Cloudy
Vidljivost: 10 km
Cloud details: Few Clouds 762 m
Mostly Cloudy 1524 m
2023/02/04 12:30 BKPR 041230Z 32008KT 9999 FEW025 BKN050 06/00 Q1013 NOSIG
 
LHPP - Pecs / Pogany, Hungary
Ažurirano: 04/02/2023 12:45
Mostly Cloudy
Mostly Cloudy
 Pravac vetra SSZ
Vetar: SSZ 76 km/h, Maks.: 106 km/h
Temperatura: 4°C
Osećaj hladnoće: -4°C
Tačka rose: -5°C
Vlažnost: 52%
Pritisak: 1020 hPa
Oblaci: Mostly Cloudy
Vidljivost: 10 km
Cloud details: Mostly Cloudy 1128 m
2023/02/04 11:45 LHPP 041145Z AUTO 34041G57KT 9999 BKN037 04/M05 Q1020
LHUD - Szeged, Hungary
Ažurirano: 04/07/2019 01:45
NOT Current
Vedro
Vedro
 Pravac vetra S
Vetar: S 7 km/h
Temperatura: 18°C
Tačka rose: 13°C
Vlažnost: 73%
Pritisak: 1019 hPa
Pregled: Vedro
Vidljivost: greater than 10 km
2019/07/03 23:45 LHUD 032345Z 35004KT CAVOK 18/13 Q1019
LRTR - Timisoara, Romania
Ažurirano: 04/02/2023 13:00
Slaba kiša, Drizzle, Pretežno oblačno
Slaba kiša, Drizzle, Pretežno oblačno
 Pravac vetra SZ
Vetar: SZ 33 km/h
Temperatura: 4°C
Osećaj hladnoće: -2°C
Tačka rose: 4°C
Vlažnost: 100%
Pritisak: 1012 hPa
Pregled: Slaba kiša, Drizzle
Oblaci: Mostly Cloudy
Vidljivost: 10 km
Cloud details: Few Clouds 213 m
Partly Cloudy 305 m
Mostly Cloudy 701 m
2023/02/04 12:00 LRTR 041200Z 31018KT 9999 -RADZ FEW007 SCT010 BKN023 04/04 Q1012
 
LRCV - Craiova, Romania
Ažurirano: 04/02/2023 13:00
Partly Cloudy
Partly Cloudy
 Pravac vetra Z
Vetar: Z 30 km/h
Temperatura: 8°C
Osećaj hladnoće: 4°C
Tačka rose: 0°C
Vlažnost: 57%
Pritisak: 1008 hPa
Oblaci: Partly Cloudy
Vidljivost: 10 km
Cloud details: Partly Cloudy 1067 m
2023/02/04 12:00 LRCV 041200Z 27016KT 9999 SCT035 08/00 Q1008
LBSF - Sofia, Bulgaria
Ažurirano: 04/02/2023 13:30
Slaba kiša, Oblačno
Slaba kiša, Oblačno
 Pravac vetra Z
Vetar: Z 24 km/h
Temperatura: 3°C
Osećaj hladnoće: -2°C
Tačka rose: 0°C
Vlažnost: 81%
Pritisak: 1010 hPa
Pregled: Light Rain
Oblaci: Oblačno
Vidljivost: 10 km
Cloud details: Mostly Cloudy 427 m
Mostly Cloudy 610 m
Oblačno 1036 m
2023/02/04 12:30 LBSF 041230Z 27013KT 9999 -RA BKN014 BKN020 OVC034 03/00 Q1010 NOSIG
LWSK - Skoplje, Makedonija
Ažurirano: 04/02/2023 13:00
Mostly Cloudy
Mostly Cloudy
 Pravac vetra SSI
Vetar: SSI 11 km/h
Temperatura: 6°C
Osećaj hladnoće: 4°C
Tačka rose: 3°C
Vlažnost: 81%
Pritisak: 1013 hPa
Oblaci: Mostly Cloudy
Vidljivost: 10 km
Cloud details: Few Clouds 1006 m
Mostly Cloudy 2134 m
2023/02/04 12:00 LWSK 041200Z 03006KT 9999 FEW033 BKN070 06/03 Q1013 NOSIG
 
LYPG - Podgorica, Crna Gora
Ažurirano: 04/02/2023 13:00
Partly Cloudy
Partly Cloudy
 Pravac vetra varies
Vetar: varies 4 km/h
Temperatura: 11°C
Tačka rose: 0°C
Vlažnost: 47%
Pritisak: 1015 hPa
Oblaci: Partly Cloudy
Vidljivost: 10 km
Cloud details: Few Clouds 1219 m
Partly Cloudy 2743 m
2023/02/04 12:00 LYPG 041200Z VRB02KT 9999 FEW040 SCT090 11/00 Q1015 BECMG 36015KT
LQSA - Sarajevo, Bosna i Hercegovina
Ažurirano: 04/02/2023 13:00
Light snow, Pretežno oblačno
Light snow, Pretežno oblačno
 Pravac vetra SSZ
Vetar: SSZ 28 km/h
Temperatura: 3°C
Osećaj hladnoće: -3°C
Tačka rose: -3°C
Vlažnost: 65%
Pritisak: 1019 hPa
Pregled: Light Snow
Oblaci: Mostly Cloudy
Vidljivost: 10 km
Cloud details: Partly Cloudy 762 m
Mostly Cloudy 1219 m
2023/02/04 12:00 LQSA 041200Z 33015KT 300V360 9999 -SN SCT025 BKN040 03/M03 Q1019 WS ALL RWY NOSIG
LDOS - Osijek, Hrvatksa
Ažurirano: 04/02/2023 13:30
Mostly Cloudy
Mostly Cloudy
 Pravac vetra SSZ
Vetar: SSZ 63 km/h, Maks.: 85 km/h
Temperatura: 4°C
Osećaj hladnoće: -3°C
Tačka rose: -3°C
Vlažnost: 61%
Pritisak: 1019 hPa
Oblaci: Mostly Cloudy
Vidljivost: 10 km
Cloud details: Few Clouds 1128 m
Mostly Cloudy 1311 m
2023/02/04 12:30 LDOS 041230Z 34034G46KT 9999 FEW037 BKN043 04/M03 Q1019